International Virtual Aviation Organisation

Russian Federation and Kazakhstan MCD

 
USSS 032000Z VRB01MPS 6000 -SN BKN017 M15/M16 Q1038 R26R/120037 NOSIG RMK QFE757/1010
QNH:(hPa/inHg/mmHg)1038 / 30.65 / 779
QFE:(hPa/inHg/mmHg)1010 / 29.81 / 757
Temperature-15
Dew Point-16
Visibility6000
WeatherLight Snow
Cloud CoverBKN (1700);
Transition Height900 m./3800 ft.
Transition LevelFL50
SQUAWK